createdAt,value
2017-10-14T00:00:52.929Z,1014.89
2017-10-14T00:01:52.843Z,1014.92
2017-10-14T00:02:52.763Z,1014.94
2017-10-14T00:03:52.679Z,1014.94
2017-10-14T00:04:52.616Z,1014.93
2017-10-14T00:05:52.575Z,1014.98
2017-10-14T00:06:52.443Z,1014.92
2017-10-14T00:07:52.360Z,1014.95
2017-10-14T00:08:52.277Z,1014.92
2017-10-14T00:09:52.198Z,1014.91
2017-10-14T00:10:52.113Z,1014.91
2017-10-14T00:11:52.036Z,1014.94
2017-10-14T00:12:51.966Z,1014.93
2017-10-14T00:13:51.874Z,1014.95
2017-10-14T00:14:51.793Z,1014.94
2017-10-14T00:15:51.710Z,1014.92
2017-10-14T00:16:51.627Z,1014.94
2017-10-14T00:17:51.545Z,1014.93
2017-10-14T00:18:51.467Z,1014.92
2017-10-14T00:19:51.381Z,1014.95
2017-10-14T00:20:51.301Z,1014.92
2017-10-14T00:21:51.221Z,1014.94
2017-10-14T00:22:51.142Z,1014.95
2017-10-14T00:23:51.061Z,1015.00
2017-10-14T00:24:50.976Z,1015.00
2017-10-14T00:25:50.933Z,1014.99
2017-10-14T00:26:50.817Z,1015.02
2017-10-14T00:27:50.745Z,1015.00
2017-10-14T00:28:50.654Z,1015.00
2017-10-14T00:29:50.573Z,1014.97
2017-10-14T00:30:50.513Z,1014.97
2017-10-14T00:31:50.413Z,1014.98
2017-10-14T00:32:50.333Z,1014.98
2017-10-14T00:33:50.244Z,1014.99
2017-10-14T00:34:50.168Z,1015.00
2017-10-14T00:35:50.082Z,1015.02
2017-10-14T00:36:50.005Z,1015.02
2017-10-14T00:37:49.928Z,1015.02
2017-10-14T00:38:49.843Z,1015.06
2017-10-14T00:39:49.765Z,1015.02
2017-10-14T00:40:49.679Z,1015.02
2017-10-14T00:41:49.601Z,1015.01
2017-10-14T00:42:49.518Z,1015.00
2017-10-14T00:43:49.441Z,1015.02
2017-10-14T00:44:49.358Z,1015.02
2017-10-14T00:45:49.274Z,1015.05
2017-10-14T00:46:49.202Z,1015.02
2017-10-14T00:47:49.114Z,1015.03
2017-10-14T00:48:49.038Z,1015.06
2017-10-14T00:49:48.950Z,1015.03
2017-10-14T00:50:48.867Z,1015.04
2017-10-14T00:51:48.783Z,1015.04
2017-10-14T00:52:48.703Z,1015.03
2017-10-14T00:53:48.636Z,1015.02
2017-10-14T00:54:48.542Z,1015.04
2017-10-14T00:55:48.461Z,1015.03
2017-10-14T00:56:48.384Z,1015.04
2017-10-14T00:57:48.303Z,1015.06
2017-10-14T00:58:48.215Z,1015.03
2017-10-14T00:59:48.137Z,1015.06
2017-10-14T01:00:48.055Z,1015.04
2017-10-14T01:01:47.979Z,1015.05
2017-10-14T01:02:47.897Z,1015.01
2017-10-14T01:03:47.813Z,1015.00
2017-10-14T01:04:47.732Z,1015.00
2017-10-14T01:05:47.648Z,1014.97
2017-10-14T01:06:47.573Z,1014.97
2017-10-14T01:07:47.488Z,1014.99
2017-10-14T01:08:47.416Z,1014.99
2017-10-14T01:09:47.324Z,1014.98
2017-10-14T01:10:47.243Z,1014.97
2017-10-14T01:11:47.165Z,1014.99
2017-10-14T01:12:47.080Z,1014.99
2017-10-14T01:13:47.001Z,1015.00
2017-10-14T01:14:46.919Z,1014.98
2017-10-14T01:15:46.841Z,1014.98
2017-10-14T01:16:46.763Z,1014.97
2017-10-14T01:17:46.681Z,1014.96
2017-10-14T01:18:46.589Z,1014.94
2017-10-14T01:19:46.517Z,1014.96
2017-10-14T01:20:46.445Z,1014.95
2017-10-14T01:21:46.354Z,1014.97
2017-10-14T01:22:46.291Z,1015.03
2017-10-14T01:23:46.188Z,1014.99
2017-10-14T01:24:46.105Z,1014.97
2017-10-14T01:25:46.026Z,1015.02
2017-10-14T01:26:45.946Z,1014.99
2017-10-14T01:27:45.865Z,1015.02
2017-10-14T01:28:45.780Z,1015.03
2017-10-14T01:29:45.694Z,1015.08
2017-10-14T01:30:45.617Z,1015.08
2017-10-14T01:31:45.544Z,1015.04
2017-10-14T01:32:45.453Z,1015.10
2017-10-14T01:33:45.375Z,1015.05
2017-10-14T01:34:45.295Z,1015.07
2017-10-14T01:35:45.215Z,1015.09
2017-10-14T01:36:45.130Z,1015.09
2017-10-14T01:37:45.051Z,1015.08
2017-10-14T01:38:44.966Z,1015.09
2017-10-14T01:39:44.888Z,1015.07
2017-10-14T01:40:44.804Z,1015.05
2017-10-14T01:41:44.724Z,1015.07
2017-10-14T01:42:44.640Z,1015.07
2017-10-14T01:43:44.559Z,1015.06
2017-10-14T01:44:44.474Z,1015.01
2017-10-14T01:45:44.401Z,1015.02
2017-10-14T01:46:44.315Z,1015.02
2017-10-14T01:47:44.230Z,1014.99
2017-10-14T01:48:44.157Z,1014.98
2017-10-14T01:49:44.072Z,1015.01
2017-10-14T01:50:43.997Z,1015.02
2017-10-14T01:51:43.908Z,1015.02
2017-10-14T01:52:43.839Z,1015.00
2017-10-14T01:53:43.745Z,1015.05
2017-10-14T01:54:43.659Z,1015.03
2017-10-14T01:55:43.583Z,1015.01
2017-10-14T01:56:43.502Z,1015.03
2017-10-14T01:57:43.430Z,1015.04
2017-10-14T01:58:43.339Z,1014.99
2017-10-14T01:59:43.261Z,1014.99
2017-10-14T02:00:43.174Z,1015.00
2017-10-14T02:01:43.091Z,1014.99
2017-10-14T02:02:43.019Z,1014.99
2017-10-14T02:03:42.932Z,1014.99
2017-10-14T02:04:42.858Z,1015.01
2017-10-14T02:05:42.767Z,1014.98
2017-10-14T02:06:42.690Z,1014.96
2017-10-14T02:07:42.606Z,1014.92
2017-10-14T02:08:42.526Z,1014.92
2017-10-14T02:09:42.438Z,1014.90
2017-10-14T02:10:42.355Z,1014.89
2017-10-14T02:11:42.289Z,1014.88
2017-10-14T02:12:42.196Z,1014.91
2017-10-14T02:13:42.118Z,1014.93
2017-10-14T02:14:42.043Z,1014.92
2017-10-14T02:15:41.953Z,1014.87
2017-10-14T02:16:41.874Z,1014.87
2017-10-14T02:17:41.817Z,1014.86
2017-10-14T02:18:41.708Z,1014.88
2017-10-14T02:19:41.633Z,1014.87
2017-10-14T02:20:41.545Z,1014.84
2017-10-14T02:21:41.460Z,1014.87
2017-10-14T02:22:41.382Z,1014.85
2017-10-14T02:23:41.297Z,1014.90
2017-10-14T02:24:41.216Z,1014.87
2017-10-14T02:25:41.135Z,1014.84
2017-10-14T02:26:41.054Z,1014.90
2017-10-14T02:27:40.966Z,1014.88
2017-10-14T02:28:40.885Z,1014.90
2017-10-14T02:29:40.805Z,1014.91
2017-10-14T02:30:40.728Z,1014.89
2017-10-14T02:31:40.638Z,1014.90
2017-10-14T02:32:40.565Z,1014.93
2017-10-14T02:33:40.482Z,1014.92
2017-10-14T02:34:40.395Z,1014.89
2017-10-14T02:35:40.318Z,1014.91
2017-10-14T02:36:40.237Z,1014.87
2017-10-14T02:37:40.153Z,1014.86
2017-10-14T02:38:40.071Z,1014.89
2017-10-14T02:39:39.991Z,1014.90
2017-10-14T02:40:39.907Z,1014.91
2017-10-14T02:41:39.828Z,1014.90
2017-10-14T02:42:39.741Z,1014.91
2017-10-14T02:43:39.658Z,1014.93
2017-10-14T02:44:39.580Z,1014.96
2017-10-14T02:45:39.499Z,1014.93
2017-10-14T02:46:39.416Z,1014.93
2017-10-14T02:47:39.336Z,1014.94
2017-10-14T02:48:39.249Z,1014.96
2017-10-14T02:49:39.167Z,1014.96
2017-10-14T02:50:39.087Z,1014.97
2017-10-14T02:51:39.007Z,1014.96
2017-10-14T02:52:38.924Z,1015.00
2017-10-14T02:53:38.845Z,1015.00
2017-10-14T02:54:38.761Z,1015.01
2017-10-14T02:55:38.677Z,1015.02
2017-10-14T02:56:38.598Z,1015.00
2017-10-14T02:57:38.514Z,1015.07
2017-10-14T02:58:38.432Z,1015.01
2017-10-14T02:59:38.356Z,1015.02
2017-10-14T03:00:38.267Z,1015.00
2017-10-14T03:01:38.188Z,1015.05
2017-10-14T03:02:38.102Z,1015.01
2017-10-14T03:03:38.018Z,1015.02
2017-10-14T03:04:37.944Z,1015.01
2017-10-14T03:05:37.865Z,1015.03
2017-10-14T03:06:37.775Z,1015.00
2017-10-14T03:07:37.696Z,1015.00
2017-10-14T03:08:37.615Z,1014.99
2017-10-14T03:09:37.536Z,1015.00
2017-10-14T03:10:37.445Z,1015.04
2017-10-14T03:11:37.373Z,1015.05
2017-10-14T03:12:37.285Z,1015.06
2017-10-14T03:13:37.203Z,1015.02
2017-10-14T03:14:37.127Z,1015.00
2017-10-14T03:15:37.038Z,1015.04
2017-10-14T03:16:36.964Z,1015.01
2017-10-14T03:17:36.891Z,1015.02
2017-10-14T03:18:36.801Z,1015.01
2017-10-14T03:19:36.708Z,1015.00
2017-10-14T03:20:36.630Z,1015.06
2017-10-14T03:21:36.545Z,1015.03
2017-10-14T03:22:36.465Z,1015.00
2017-10-14T03:23:36.380Z,1015.00
2017-10-14T03:24:36.306Z,1015.04
2017-10-14T03:25:36.228Z,1015.02
2017-10-14T03:26:36.133Z,1015.01
2017-10-14T03:27:36.066Z,1015.03
2017-10-14T03:28:35.972Z,1015.05
2017-10-14T03:29:35.889Z,1015.03
2017-10-14T03:30:35.808Z,1015.05
2017-10-14T03:31:35.728Z,1015.03
2017-10-14T03:32:35.649Z,1015.05
2017-10-14T03:33:35.561Z,1015.07
2017-10-14T03:34:35.483Z,1015.07
2017-10-14T03:35:35.403Z,1015.02
2017-10-14T03:36:35.320Z,1015.02
2017-10-14T03:37:35.229Z,1015.03
2017-10-14T03:38:35.149Z,1015.02
2017-10-14T03:39:35.072Z,1015.02
2017-10-14T03:40:34.983Z,1015.02
2017-10-14T03:41:35.133Z,1015.01
2017-10-14T03:42:34.826Z,1015.00
2017-10-14T03:43:34.745Z,1014.98
2017-10-14T03:44:34.654Z,1015.00
2017-10-14T03:45:34.575Z,1015.00
2017-10-14T03:46:34.493Z,1014.96
2017-10-14T03:47:34.409Z,1014.93
2017-10-14T03:48:34.327Z,1014.92
2017-10-14T03:49:34.249Z,1014.93
2017-10-14T03:50:34.171Z,1014.89
2017-10-14T03:51:34.080Z,1014.89
2017-10-14T03:52:33.997Z,1014.90
2017-10-14T03:53:33.921Z,1014.89
2017-10-14T03:54:33.838Z,1014.88
2017-10-14T03:55:33.749Z,1014.87
2017-10-14T03:56:33.682Z,1014.90
2017-10-14T03:57:33.595Z,1014.89
2017-10-14T03:58:33.501Z,1014.90
2017-10-14T03:59:33.431Z,1014.92
2017-10-14T04:00:33.349Z,1014.92
2017-10-14T04:01:33.264Z,1014.91
2017-10-14T04:02:33.180Z,1014.94
2017-10-14T04:03:33.092Z,1014.93
2017-10-14T04:04:33.011Z,1014.97
2017-10-14T04:05:32.929Z,1015.03
2017-10-14T04:06:32.861Z,1014.98
2017-10-14T04:07:32.763Z,1015.00
2017-10-14T04:08:32.682Z,1014.95
2017-10-14T04:09:32.598Z,1014.99
2017-10-14T04:10:32.538Z,1015.00
2017-10-14T04:11:32.438Z,1014.97
2017-10-14T04:12:32.352Z,1015.00
2017-10-14T04:13:32.273Z,1015.01
2017-10-14T04:14:32.189Z,1015.02
2017-10-14T04:15:32.104Z,1014.99
2017-10-14T04:16:32.022Z,1015.02
2017-10-14T04:17:31.942Z,1015.04
2017-10-14T04:18:31.871Z,1015.04
2017-10-14T04:19:31.777Z,1015.03
2017-10-14T04:20:31.696Z,1015.07
2017-10-14T04:21:31.613Z,1015.03
2017-10-14T04:22:31.533Z,1015.03
2017-10-14T04:23:31.451Z,1015.04
2017-10-14T04:24:31.367Z,1015.06
2017-10-14T04:25:31.284Z,1015.01
2017-10-14T04:26:31.202Z,1015.04
2017-10-14T04:27:31.119Z,1015.05
2017-10-14T04:28:31.038Z,1015.12
2017-10-14T04:29:30.963Z,1015.08
2017-10-14T04:30:30.872Z,1015.09
2017-10-14T04:31:30.793Z,1015.06
2017-10-14T04:32:30.706Z,1015.07
2017-10-14T04:33:30.635Z,1015.09
2017-10-14T04:34:30.544Z,1015.15
2017-10-14T04:35:30.456Z,1015.10
2017-10-14T04:36:30.376Z,1015.09
2017-10-14T04:37:30.292Z,1015.09
2017-10-14T04:38:30.218Z,1015.12
2017-10-14T04:39:30.137Z,1015.09
2017-10-14T04:40:30.045Z,1015.06
2017-10-14T04:41:29.965Z,1015.09
2017-10-14T04:42:29.888Z,1015.06
2017-10-14T04:43:29.801Z,1015.06
2017-10-14T04:44:29.716Z,1015.09
2017-10-14T04:45:29.636Z,1015.09
2017-10-14T04:46:29.547Z,1015.09
2017-10-14T04:47:29.468Z,1015.07
2017-10-14T04:48:29.390Z,1015.14
2017-10-14T04:49:29.305Z,1015.14
2017-10-14T04:50:29.226Z,1015.09
2017-10-14T04:51:29.144Z,1015.07
2017-10-14T04:52:29.056Z,1015.04
2017-10-14T04:53:28.970Z,1015.03
2017-10-14T04:54:28.897Z,1015.05
2017-10-14T04:55:28.824Z,1014.96
2017-10-14T04:56:28.732Z,1014.94
2017-10-14T04:57:28.644Z,1015.00
2017-10-14T04:58:28.560Z,1014.97
2017-10-14T04:59:28.483Z,1014.94
2017-10-14T05:00:28.399Z,1014.94
2017-10-14T05:01:28.314Z,1014.92
2017-10-14T05:02:28.229Z,1014.94
2017-10-14T05:03:28.150Z,1014.90
2017-10-14T05:04:28.074Z,1014.91
2017-10-14T05:05:28.001Z,1014.91
2017-10-14T05:06:27.903Z,1014.94
2017-10-14T05:07:27.817Z,1014.95
2017-10-14T05:08:27.734Z,1014.96
2017-10-14T05:09:27.658Z,1014.97
2017-10-14T05:10:27.585Z,1014.97
2017-10-14T05:11:27.499Z,1014.97
2017-10-14T05:12:27.403Z,1014.98
2017-10-14T05:13:27.327Z,1015.00
2017-10-14T05:14:27.252Z,1015.00
2017-10-14T05:15:27.163Z,1015.01
2017-10-14T05:16:27.079Z,1015.04
2017-10-14T05:17:26.994Z,1015.05
2017-10-14T05:18:26.916Z,1015.07
2017-10-14T05:19:26.838Z,1015.04
2017-10-14T05:20:26.747Z,1015.03
2017-10-14T05:21:26.662Z,1015.05
2017-10-14T05:22:26.577Z,1015.08
2017-10-14T05:23:26.497Z,1015.05
2017-10-14T05:24:26.418Z,1015.07
2017-10-14T05:25:26.330Z,1015.08
2017-10-14T05:26:26.249Z,1015.08
2017-10-14T05:27:26.166Z,1015.07
2017-10-14T05:28:26.093Z,1015.09
2017-10-14T05:29:26.000Z,1015.10
2017-10-14T05:30:25.921Z,1015.12
2017-10-14T05:31:25.835Z,1015.11
2017-10-14T05:32:25.755Z,1015.13
2017-10-14T05:33:25.683Z,1015.14
2017-10-14T05:34:25.593Z,1015.09
2017-10-14T05:35:25.523Z,1015.14
2017-10-14T05:36:25.422Z,1015.18
2017-10-14T05:37:25.333Z,1015.17
2017-10-14T05:38:25.260Z,1015.17
2017-10-14T05:39:25.174Z,1015.19
2017-10-14T05:40:25.088Z,1015.16
2017-10-14T05:41:25.010Z,1015.15
2017-10-14T05:42:24.922Z,1015.19
2017-10-14T05:43:24.841Z,1015.15
2017-10-14T05:44:24.762Z,1015.14
2017-10-14T05:45:24.676Z,1015.15
2017-10-14T05:46:24.598Z,1015.14
2017-10-14T05:47:24.517Z,1015.18
2017-10-14T05:48:24.429Z,1015.17
2017-10-14T05:49:24.343Z,1015.20
2017-10-14T05:50:24.263Z,1015.19
2017-10-14T05:51:24.183Z,1015.18
2017-10-14T05:52:24.096Z,1015.23
2017-10-14T05:53:24.021Z,1015.20
2017-10-14T05:54:23.930Z,1015.25
2017-10-14T05:55:23.850Z,1015.24
2017-10-14T05:56:23.761Z,1015.26
2017-10-14T05:57:23.683Z,1015.27
2017-10-14T05:58:23.620Z,1015.27
2017-10-14T05:59:23.524Z,1015.25
2017-10-14T06:00:23.436Z,1015.27
2017-10-14T06:01:23.352Z,1015.28
2017-10-14T06:02:23.296Z,1015.28
2017-10-14T06:03:23.192Z,1015.33
2017-10-14T06:04:23.110Z,1015.33
2017-10-14T06:05:23.022Z,1015.34
2017-10-14T06:06:22.939Z,1015.33
2017-10-14T06:07:22.860Z,1015.38
2017-10-14T06:08:22.777Z,1015.39
2017-10-14T06:09:22.705Z,1015.42
2017-10-14T06:10:22.613Z,1015.42
2017-10-14T06:11:22.527Z,1015.42
2017-10-14T06:12:22.446Z,1015.44
2017-10-14T06:13:22.361Z,1015.43
2017-10-14T06:14:22.280Z,1015.46
2017-10-14T06:15:22.198Z,1015.43
2017-10-14T06:16:22.118Z,1015.44
2017-10-14T06:17:22.031Z,1015.44
2017-10-14T06:18:21.946Z,1015.44
2017-10-14T06:19:21.866Z,1015.48
2017-10-14T06:20:21.793Z,1015.47
2017-10-14T06:21:21.700Z,1015.48
2017-10-14T06:22:21.628Z,1015.47
2017-10-14T06:23:21.537Z,1015.50
2017-10-14T06:24:21.452Z,1015.48
2017-10-14T06:25:21.374Z,1015.51
2017-10-14T06:26:21.286Z,1015.52
2017-10-14T06:27:21.213Z,1015.55
2017-10-14T06:28:21.140Z,1015.56
2017-10-14T06:29:21.038Z,1015.61
2017-10-14T06:30:20.958Z,1015.61
2017-10-14T06:31:20.885Z,1015.66
2017-10-14T06:32:20.789Z,1015.65
2017-10-14T06:33:20.708Z,1015.65
2017-10-14T06:34:20.620Z,1015.73
2017-10-14T06:35:20.551Z,1015.68
2017-10-14T06:36:20.460Z,1015.69
2017-10-14T06:37:20.380Z,1015.71
2017-10-14T06:38:20.298Z,1015.74
2017-10-14T06:39:20.214Z,1015.71
2017-10-14T06:40:20.129Z,1015.71
2017-10-14T06:41:20.049Z,1015.70
2017-10-14T06:42:19.967Z,1015.66
2017-10-14T06:43:19.888Z,1015.70
2017-10-14T06:44:19.815Z,1015.63
2017-10-14T06:45:19.745Z,1015.69
2017-10-14T06:46:19.632Z,1015.69
2017-10-14T06:47:19.580Z,1015.77
2017-10-14T06:48:19.475Z,1015.79
2017-10-14T06:49:19.384Z,1015.76
2017-10-14T06:50:19.319Z,1015.80
2017-10-14T06:51:19.268Z,1015.75
2017-10-14T06:52:19.147Z,1015.76
2017-10-14T06:53:19.095Z,1015.81
2017-10-14T06:54:18.981Z,1015.85
2017-10-14T06:55:18.901Z,1015.82
2017-10-14T06:56:18.817Z,1015.83
2017-10-14T06:57:18.730Z,1015.86
2017-10-14T06:58:18.648Z,1015.85
2017-10-14T06:59:18.570Z,1015.86
2017-10-14T07:00:18.484Z,1015.83
2017-10-14T07:01:18.413Z,1015.87
2017-10-14T07:02:18.318Z,1015.88
2017-10-14T07:03:18.239Z,1015.91
2017-10-14T07:04:18.151Z,1015.94
2017-10-14T07:05:18.074Z,1015.97
2017-10-14T07:06:17.994Z,1016.06
2017-10-14T07:07:17.914Z,1016.14
2017-10-14T07:08:17.843Z,1016.21
2017-10-14T07:09:17.753Z,1016.28
2017-10-14T07:10:17.672Z,1016.29
2017-10-14T07:11:17.589Z,1016.23
2017-10-14T07:12:17.502Z,1016.26
2017-10-14T07:13:17.419Z,1016.24
2017-10-14T07:14:17.334Z,1016.26
2017-10-14T07:15:17.267Z,1016.23
2017-10-14T07:16:17.186Z,1016.29
2017-10-14T07:17:17.096Z,1016.30
2017-10-14T07:18:17.012Z,1016.29
2017-10-14T07:19:16.929Z,1016.34
2017-10-14T07:20:16.845Z,1016.36
2017-10-14T07:21:16.766Z,1016.42
2017-10-14T07:22:16.692Z,1016.52
2017-10-14T07:23:16.605Z,1016.51
2017-10-14T07:24:16.534Z,1016.60
2017-10-14T07:25:16.445Z,1016.57
2017-10-14T07:26:16.362Z,1016.62
2017-10-14T07:27:16.281Z,1016.60
2017-10-14T07:28:16.201Z,1016.65
2017-10-14T07:29:16.127Z,1016.67
2017-10-14T07:30:16.064Z,1016.72
2017-10-14T07:31:15.966Z,1016.77
2017-10-14T07:32:15.892Z,1016.83
2017-10-14T07:33:15.799Z,1016.97
2017-10-14T07:34:15.725Z,1016.97
2017-10-14T07:35:15.639Z,1017.13
2017-10-14T07:36:15.560Z,1017.21
2017-10-14T07:37:15.476Z,1017.23
2017-10-14T07:38:15.401Z,1017.23
2017-10-14T07:39:15.329Z,1017.15
2017-10-14T07:40:15.254Z,1017.09
2017-10-14T07:41:15.167Z,1016.92
2017-10-14T07:42:15.089Z,1016.99
2017-10-14T07:43:15.020Z,1017.01
2017-10-14T07:44:14.934Z,1016.97
2017-10-14T07:45:14.865Z,1017.04
2017-10-14T07:46:14.778Z,1017.20
2017-10-14T07:47:14.707Z,1017.23
2017-10-14T07:48:14.624Z,1017.28
2017-10-14T07:49:14.549Z,1017.30
2017-10-14T07:50:14.473Z,1017.31
2017-10-14T07:51:14.394Z,1017.30
2017-10-14T07:52:14.364Z,1017.32
2017-10-14T07:53:14.254Z,1017.36
2017-10-14T07:54:14.172Z,1017.36
2017-10-14T07:55:14.104Z,1017.32
2017-10-14T07:56:14.028Z,1017.28
2017-10-14T07:57:13.953Z,1017.29
2017-10-14T07:58:13.878Z,1017.28
2017-10-14T07:59:13.818Z,1017.24
2017-10-14T08:00:13.734Z,1017.23
2017-10-14T08:01:13.662Z,1017.27
2017-10-14T08:02:13.598Z,1017.27
2017-10-14T08:03:13.522Z,1017.27
2017-10-14T08:04:13.445Z,1017.25
2017-10-14T08:05:13.411Z,1017.30
2017-10-14T08:06:13.306Z,1017.23
2017-10-14T08:07:13.239Z,1017.31
2017-10-14T08:08:13.165Z,1017.27
2017-10-14T08:09:13.085Z,1017.28
2017-10-14T08:10:13.030Z,1017.25
2017-10-14T08:11:12.967Z,1017.28
2017-10-14T08:12:12.887Z,1017.28
2017-10-14T08:13:12.809Z,1017.28
2017-10-14T08:14:12.745Z,1017.32
2017-10-14T08:15:12.668Z,1017.31
2017-10-14T08:16:12.629Z,1017.32
2017-10-14T08:17:12.525Z,1017.37
2017-10-14T08:18:12.482Z,1017.38
2017-10-14T08:19:12.394Z,1017.39
2017-10-14T08:20:12.317Z,1017.40
2017-10-14T08:21:12.253Z,1017.35
2017-10-14T08:22:12.180Z,1017.37
2017-10-14T08:23:12.118Z,1017.39
2017-10-14T08:24:12.043Z,1017.40
2017-10-14T08:25:11.973Z,1017.40
2017-10-14T08:26:11.939Z,1017.39
2017-10-14T08:27:11.839Z,1017.33
2017-10-14T08:28:11.765Z,1017.36
2017-10-14T08:29:11.699Z,1017.34
2017-10-14T08:30:11.632Z,1017.35
2017-10-14T08:31:11.575Z,1017.32
2017-10-14T08:32:11.508Z,1017.33
2017-10-14T08:33:11.427Z,1017.36
2017-10-14T08:34:11.355Z,1017.35
2017-10-14T08:35:11.287Z,1017.29
2017-10-14T08:36:11.215Z,1017.31
2017-10-14T08:37:11.149Z,1017.31
2017-10-14T08:38:11.093Z,1017.36
2017-10-14T08:39:11.019Z,1017.34
2017-10-14T08:40:10.949Z,1017.33
2017-10-14T08:41:10.880Z,1017.29
2017-10-14T08:42:10.810Z,1017.32
2017-10-14T08:43:10.744Z,1017.29
2017-10-14T08:44:10.676Z,1017.32
2017-10-14T08:45:10.599Z,1017.32
2017-10-14T08:46:10.543Z,1017.32
2017-10-14T08:47:10.471Z,1017.29
2017-10-14T08:48:10.404Z,1017.35
2017-10-14T08:49:10.332Z,1017.32
2017-10-14T08:50:10.273Z,1017.30
2017-10-14T08:51:10.196Z,1017.31
2017-10-14T08:52:10.138Z,1017.30
2017-10-14T08:53:10.068Z,1017.27
2017-10-14T08:54:09.992Z,1017.28
2017-10-14T08:55:09.933Z,1017.27
2017-10-14T08:56:09.862Z,1017.28
2017-10-14T08:57:09.798Z,1017.30
2017-10-14T08:58:09.730Z,1017.27
2017-10-14T08:59:09.665Z,1017.30
2017-10-14T09:00:09.599Z,1017.27
2017-10-14T09:01:09.525Z,1017.30
2017-10-14T09:02:09.454Z,1017.27
2017-10-14T09:03:09.390Z,1017.28
2017-10-14T09:04:09.325Z,1017.27
2017-10-14T09:05:09.253Z,1017.30
2017-10-14T09:06:09.187Z,1017.26
2017-10-14T09:07:09.113Z,1017.31
2017-10-14T09:08:09.055Z,1017.26
2017-10-14T09:09:08.986Z,1017.33
2017-10-14T09:10:08.912Z,1017.32
2017-10-14T09:11:08.844Z,1017.27
2017-10-14T09:12:08.785Z,1017.29
2017-10-14T09:13:08.707Z,1017.30
2017-10-14T09:14:08.647Z,1017.32
2017-10-14T09:15:08.577Z,1017.32
2017-10-14T09:16:08.506Z,1017.31
2017-10-14T09:17:09.162Z,1017.30
2017-10-14T09:18:08.373Z,1017.32
2017-10-14T09:19:08.309Z,1017.28
2017-10-14T09:20:08.254Z,1017.33
2017-10-14T09:21:08.173Z,1017.35
2017-10-14T09:22:08.104Z,1017.34
2017-10-14T09:23:08.054Z,1017.34
2017-10-14T09:24:07.976Z,1017.37
2017-10-14T09:25:07.910Z,1017.39
2017-10-14T09:26:07.882Z,1017.39
2017-10-14T09:27:07.766Z,1017.37
2017-10-14T09:28:07.704Z,1017.42
2017-10-14T09:29:07.631Z,1017.40
2017-10-14T09:30:07.576Z,1017.39
2017-10-14T09:31:07.504Z,1017.38
2017-10-14T09:32:07.445Z,1017.41
2017-10-14T09:33:07.376Z,1017.43
2017-10-14T09:34:07.312Z,1017.36
2017-10-14T09:35:07.271Z,1017.35
2017-10-14T09:36:07.175Z,1017.35
2017-10-14T09:37:07.103Z,1017.34
2017-10-14T09:38:07.078Z,1017.35
2017-10-14T09:39:06.976Z,1017.29
2017-10-14T09:40:07.012Z,1017.31
2017-10-14T09:41:06.852Z,1017.33
2017-10-14T09:42:06.789Z,1017.27
2017-10-14T09:43:06.710Z,1017.32
2017-10-14T09:44:06.659Z,1017.29
2017-10-14T09:45:06.574Z,1017.26
2017-10-14T09:46:06.508Z,1017.21
2017-10-14T09:47:06.449Z,1017.07
2017-10-14T09:48:06.378Z,1016.96
2017-10-14T09:49:06.308Z,1016.90
2017-10-14T09:50:06.240Z,1016.71
2017-10-14T09:51:06.181Z,1016.62
2017-10-14T09:52:06.121Z,1016.60
2017-10-14T09:53:06.038Z,1016.55
2017-10-14T09:54:05.977Z,1016.52
2017-10-14T09:55:05.914Z,1016.51
2017-10-14T09:56:05.841Z,1016.54
2017-10-14T09:57:05.774Z,1016.52
2017-10-14T09:58:05.705Z,1016.51
2017-10-14T09:59:05.656Z,1016.52
2017-10-14T10:00:05.571Z,1016.52
2017-10-14T10:01:05.503Z,1016.50
2017-10-14T10:02:05.433Z,1016.50
2017-10-14T10:03:05.367Z,1016.50
2017-10-14T10:04:05.299Z,1016.47
2017-10-14T10:05:05.225Z,1016.47
2017-10-14T10:06:05.179Z,1016.49
2017-10-14T10:07:05.101Z,1016.45
2017-10-14T10:08:05.027Z,1016.43
2017-10-14T10:09:04.950Z,1016.45
2017-10-14T10:10:04.884Z,1016.42
2017-10-14T10:11:04.812Z,1016.44
2017-10-14T10:12:04.748Z,1016.45
2017-10-14T10:13:04.676Z,1016.49
2017-10-14T10:14:04.613Z,1016.46
2017-10-14T10:15:04.539Z,1016.42
2017-10-14T10:16:04.473Z,1016.45
2017-10-14T10:17:04.391Z,1016.47
2017-10-14T10:18:04.326Z,1016.45
2017-10-14T10:19:04.255Z,1016.46
2017-10-14T10:20:04.201Z,1016.44
2017-10-14T10:21:04.113Z,1016.41
2017-10-14T10:22:04.049Z,1016.43
2017-10-14T10:23:03.976Z,1016.39
2017-10-14T10:24:03.909Z,1016.39
2017-10-14T10:25:03.833Z,1016.39
2017-10-14T10:26:03.768Z,1016.37
2017-10-14T10:27:03.699Z,1016.44
2017-10-14T10:28:03.627Z,1016.39
2017-10-14T10:29:03.559Z,1016.40
2017-10-14T10:30:03.489Z,1016.41
2017-10-14T10:31:03.420Z,1016.42
2017-10-14T10:32:03.362Z,1016.42
2017-10-14T10:33:03.299Z,1016.46
2017-10-14T10:34:03.212Z,1016.42
2017-10-14T10:35:03.137Z,1016.41
2017-10-14T10:36:03.068Z,1016.44
2017-10-14T10:37:03.009Z,1016.46
2017-10-14T10:38:02.925Z,1016.59
2017-10-14T10:39:02.855Z,1016.66
2017-10-14T10:40:02.788Z,1016.39
2017-10-14T10:41:02.725Z,1016.36
2017-10-14T10:42:02.647Z,1016.30
2017-10-14T10:43:02.575Z,1016.32
2017-10-14T10:44:02.506Z,1016.38
2017-10-14T10:45:02.432Z,1017.40
2017-10-14T10:46:02.361Z,1019.91
2017-10-14T10:47:02.292Z,1021.06
2017-10-14T10:48:02.225Z,1020.84
2017-10-14T10:49:02.150Z,1020.38
2017-10-14T10:50:02.081Z,1019.70
2017-10-14T10:51:02.017Z,1019.05
2017-10-14T10:52:01.947Z,1018.69
2017-10-14T10:53:01.880Z,1018.20
2017-10-14T10:54:01.805Z,1017.57
2017-10-14T10:55:01.748Z,1016.98
2017-10-14T10:56:01.669Z,1016.58
2017-10-14T10:57:01.608Z,1016.35
2017-10-14T10:58:01.536Z,1016.33
2017-10-14T10:59:01.465Z,1016.30
2017-10-14T11:00:01.395Z,1016.33
2017-10-14T11:01:01.345Z,1018.05
2017-10-14T11:02:01.262Z,1020.28
2017-10-14T11:03:01.199Z,1020.56
2017-10-14T11:04:01.129Z,1020.45
2017-10-14T11:05:01.066Z,1020.41
2017-10-14T11:06:00.998Z,1020.42
2017-10-14T11:07:00.935Z,1020.24
2017-10-14T11:08:00.880Z,1020.04
2017-10-14T11:09:00.805Z,1019.91
2017-10-14T11:10:00.740Z,1019.38
2017-10-14T11:11:00.678Z,1019.65
2017-10-14T11:12:00.603Z,1020.69
2017-10-14T11:13:00.547Z,1020.75
2017-10-14T11:14:00.481Z,1020.49
2017-10-14T11:15:00.424Z,1020.30
2017-10-14T11:16:00.355Z,1020.09
2017-10-14T11:17:00.287Z,1019.89
2017-10-14T11:18:00.228Z,1019.74
2017-10-14T11:19:00.169Z,1019.48
2017-10-14T11:20:00.103Z,1019.41
2017-10-14T11:21:00.038Z,1019.20
2017-10-14T11:21:59.979Z,1019.05
2017-10-14T11:22:59.911Z,1018.83
2017-10-14T11:23:59.848Z,1018.65
2017-10-14T11:24:59.778Z,1018.51
2017-10-14T11:25:59.726Z,1018.36
2017-10-14T11:26:59.658Z,1018.25
2017-10-14T11:27:59.595Z,1018.09
2017-10-14T11:28:59.528Z,1017.94
2017-10-14T11:29:59.477Z,1017.77
2017-10-14T11:30:59.403Z,1017.58
2017-10-14T11:31:59.338Z,1017.39
2017-10-14T11:32:59.265Z,1017.19
2017-10-14T11:33:59.199Z,1017.03
2017-10-14T11:34:59.172Z,1016.89
2017-10-14T11:35:59.074Z,1016.74
2017-10-14T11:36:59.024Z,1016.64
2017-10-14T11:37:58.926Z,1016.46
2017-10-14T11:38:58.865Z,1016.33
2017-10-14T11:39:58.803Z,1016.21
2017-10-14T11:40:58.727Z,1016.11
2017-10-14T11:41:58.656Z,1015.83
2017-10-14T11:42:58.598Z,1015.77
2017-10-14T11:43:58.518Z,1015.72
2017-10-14T11:44:58.455Z,1015.68
2017-10-14T11:45:58.392Z,1015.63
2017-10-14T11:46:58.309Z,1015.60
2017-10-14T11:47:58.240Z,1015.60
2017-10-14T11:48:58.164Z,1015.58
2017-10-14T11:49:58.093Z,1015.54
2017-10-14T11:50:58.033Z,1015.54
2017-10-14T11:51:57.969Z,1015.52
2017-10-14T11:52:57.879Z,1015.54
2017-10-14T11:53:57.824Z,1015.52
2017-10-14T11:54:57.753Z,1015.51
2017-10-14T11:55:57.672Z,1015.47
2017-10-14T11:56:57.598Z,1015.46
2017-10-14T11:57:57.535Z,1015.43
2017-10-14T11:58:57.466Z,1015.41
2017-10-14T11:59:57.396Z,1015.41
2017-10-14T12:00:57.313Z,1015.38
2017-10-14T12:01:57.259Z,1015.35
2017-10-14T12:02:57.172Z,1015.32
2017-10-14T12:03:57.104Z,1015.35
2017-10-14T12:04:57.034Z,1015.28